• Join FlightAware (Why Join?)
  • Login
  • US Flag 
10:24PM EDT


 

Airport Tracker/Info


-or-


 

Live Flight TrackerFlight Track Log ✈ CWC409 ✈ 01-May-2013 ✈ KMIA - SBEG / MAO

Flight Track Log - Related Links

Times and Time Zones

All times are in EDT time to prevent confusion due to time zone crossing. See the CWC409 flight status page for this flight to view local times or setup timezone preferences in your user account.

Time Position Orientation Groundspeed Altitude Reporting Facility
EDT Latitude Longitude Course Direction KTS MPH feet Rate Location/Type
06:30PM 25.8008 -80.2539 94° East 184 212 800  Level Miami Center
06:30PM 25.7992 -80.2261 94° East 200 230 2,000 2,040 Climbing Miami Center
06:31PM 25.7442 -80.1714 138° Southeast 277 319 4,000 2,340 Climbing Miami Center
06:32PM 25.6931 -80.1194 138° Southeast 278 320 6,700 1,500 Climbing Miami Center
06:33PM 25.6236 -80.1428 197° South 272 313 6,900 180 Climbing Miami Center
06:34PM 25.5586 -80.1547 189° South 285 328 7,100 1,200 Climbing Miami Center
06:35PM 25.4842 -80.1231 159° South 285 328 9,300 1,920 Climbing Miami Center
06:36PM 25.4100 -80.0658 145° Southeast 297 342 11,000 1,500 Climbing Miami Center
06:37PM 25.3144 -80.0517 172° South 319 367 12,400 1,260 Climbing Miami Center
06:38PM 25.2019 -80.0328 171° South 374 430 13,600 1,560 Climbing Miami Center
06:39PM 25.0858 -79.9861 160° South 409 471 15,600 1,800 Climbing Miami Center
06:40PM 24.9678 -79.9394 160° South 436 502 17,300 1,620 Climbing Miami Center
06:41PM 24.8433 -79.8931 161° South 454 522 18,900 1,680 Climbing Miami Center
06:42PM 24.7211 -79.8442 160° South 468 539 20,700 1,440 Climbing Miami Center
06:43PM 24.5906 -79.7931 160° South 478 550 21,800 1,140 Climbing Miami Center
06:44PM 24.4619 -79.7422 160° South 490 564 23,000 840 Climbing Miami Center
06:45PM 24.3314 -79.6936 161° South 495 570 23,500 840 Climbing Miami Center
06:46PM 24.2008 -79.6383 159° South 501 577 24,700 1,260 Climbing Miami Center
06:47PM 24.0658 -79.5897 162° South 501 577 26,100 1,860 Climbing Miami Center
06:48PM 23.9372 -79.5369 159° South 500 575 28,500 1,680 Climbing Miami Center
06:49PM 23.8064 -79.4956 164° South 500 575 29,500 960 Climbing Miami Center
06:51PM 23.6330 -79.3867 150° Southeast  Level FlightAware Approximate
06:58PM 22.8242 -78.9163 156° South  Level FlightAware Approximate
06:59PM 22.7050 -78.8589 156° South  Level FlightAware Approximate
07:00PM 22.5858 -78.8017 156° South  Level FlightAware Approximate
07:01PM 22.4665 -78.7445 156° South  Level FlightAware Approximate
07:02PM 22.3472 -78.6874 156° South  Level FlightAware Approximate
07:03PM 22.2279 -78.6304 156° South  Level FlightAware Approximate
07:04PM 22.1086 -78.5736 156° South  Level FlightAware Approximate
07:05PM 21.9893 -78.5168 156° South  Level FlightAware Approximate
07:06PM 21.8699 -78.4601 156° South  Level FlightAware Approximate
07:07PM 21.7506 -78.4035 156° South  Level FlightAware Approximate
07:08PM 21.6312 -78.3470 156° South  Level FlightAware Approximate
07:09PM 21.5118 -78.2906 156° South  Level FlightAware Approximate
07:10PM 21.3923 -78.2343 156° South  Level FlightAware Approximate
07:11PM 21.2729 -78.1780 156° South  Level FlightAware Approximate
07:12PM 21.1534 -78.1219 156° South  Level FlightAware Approximate
07:13PM 21.0339 -78.0659 156° South  Level FlightAware Approximate
07:14PM 20.9144 -78.0099 156° South  Level FlightAware Approximate
07:15PM 20.7949 -77.9540 156° South  Level FlightAware Approximate
07:16PM 20.6754 -77.8983 156° South  Level FlightAware Approximate
07:17PM 20.5558 -77.8426 156° South  Level FlightAware Approximate
07:18PM 20.4362 -77.7870 156° South  Level FlightAware Approximate
07:19PM 20.3166 -77.7315 156° South  Level FlightAware Approximate
07:20PM 20.1970 -77.6760 156° South  Level FlightAware Approximate
07:21PM 20.0774 -77.6207 157° South  Level FlightAware Approximate
07:22PM 19.9577 -77.5654 157° South  Level FlightAware Approximate
07:23PM 19.8381 -77.5102 157° South  Level FlightAware Approximate
07:24PM 19.7184 -77.4552 157° South  Level FlightAware Approximate
07:25PM 19.5987 -77.4001 157° South  Level FlightAware Approximate
07:26PM 19.4790 -77.3452 157° South  Level FlightAware Approximate
07:27PM 19.3576 -77.2948 161° South  Level FlightAware Approximate
07:28PM 19.2345 -77.2493 161° South  Level FlightAware Approximate
07:29PM 19.1113 -77.2039 161° South  Level FlightAware Approximate
07:30PM 18.9881 -77.1585 161° South  Level FlightAware Approximate
07:31PM 18.8650 -77.1132 161° South  Level FlightAware Approximate
07:32PM 18.7418 -77.0679 161° South  Level FlightAware Approximate
07:33PM 18.6185 -77.0227 161° South  Level FlightAware Approximate
07:34PM 18.4953 -76.9776 161° South  Level FlightAware Approximate
07:35PM 18.3721 -76.9326 161° South  Level FlightAware Approximate
07:36PM 18.2489 -76.8876 161° South  Level FlightAware Approximate
07:37PM 18.1256 -76.8427 161° South  Level FlightAware Approximate
07:38PM 18.0023 -76.7978 161° South  Level FlightAware Approximate
07:39PM 17.8862 -76.7398 140° Southeast  Level FlightAware Approximate
07:40PM 17.7862 -76.6518 140° Southeast  Level FlightAware Approximate
07:41PM 17.6862 -76.5640 140° Southeast  Level FlightAware Approximate
07:42PM 17.5861 -76.4762 140° Southeast  Level FlightAware Approximate
07:43PM 17.4860 -76.3885 140° Southeast  Level FlightAware Approximate
07:44PM 17.3859 -76.3009 140° Southeast  Level FlightAware Approximate
07:45PM 17.2857 -76.2134 140° Southeast  Level FlightAware Approximate
07:46PM 17.1855 -76.1260 140° Southeast  Level FlightAware Approximate
07:47PM 17.0852 -76.0387 140° Southeast  Level FlightAware Approximate
07:48PM 16.9849 -75.9515 140° Southeast  Level FlightAware Approximate
07:49PM 16.8846 -75.8644 140° Southeast  Level FlightAware Approximate
07:50PM 16.7843 -75.7774 140° Southeast  Level FlightAware Approximate
07:51PM 16.6838 -75.6904 140° Southeast  Level FlightAware Approximate
07:52PM 16.5834 -75.6036 140° Southeast  Level FlightAware Approximate
07:53PM 16.4829 -75.5169 140° Southeast  Level FlightAware Approximate
07:54PM 16.3824 -75.4302 140° Southeast  Level FlightAware Approximate
07:55PM 16.2819 -75.3436 140° Southeast  Level FlightAware Approximate
07:56PM 16.1813 -75.2571 140° Southeast  Level FlightAware Approximate
07:57PM 16.0807 -75.1708 140° Southeast  Level FlightAware Approximate
07:58PM 15.9800 -75.0844 140° Southeast  Level FlightAware Approximate
07:59PM 15.8793 -74.9982 141° Southeast  Level FlightAware Approximate
08:00PM 15.7786 -74.9121 141° Southeast  Level FlightAware Approximate
08:01PM 15.6779 -74.8260 141° Southeast  Level FlightAware Approximate
08:02PM 15.5771 -74.7401 141° Southeast  Level FlightAware Approximate
08:03PM 15.4763 -74.6542 141° Southeast  Level FlightAware Approximate
08:04PM 15.3754 -74.5684 141° Southeast  Level FlightAware Approximate
08:05PM 15.2745 -74.4827 141° Southeast  Level FlightAware Approximate
08:06PM 15.1736 -74.3971 141° Southeast  Level FlightAware Approximate
08:07PM 15.0727 -74.3115 141° Southeast  Level FlightAware Approximate
08:08PM 14.9709 -74.2270 143° Southeast  Level FlightAware Approximate
08:09PM 14.8673 -74.1451 143° Southeast  Level FlightAware Approximate
08:10PM 14.7636 -74.0633 143° Southeast  Level FlightAware Approximate
08:11PM 14.6603 -73.9809 141° Southeast  Level FlightAware Approximate
08:12PM 14.5586 -73.8966 141° Southeast  Level FlightAware Approximate
08:13PM 14.4568 -73.8123 141° Southeast  Level FlightAware Approximate
08:14PM 14.3550 -73.7281 141° Southeast  Level FlightAware Approximate
08:15PM 14.2532 -73.6440 141° Southeast  Level FlightAware Approximate
08:16PM 14.1514 -73.5599 141° Southeast  Level FlightAware Approximate
08:17PM 14.0495 -73.4760 141° Southeast  Level FlightAware Approximate
08:18PM 13.9476 -73.3921 141° Southeast  Level FlightAware Approximate
08:19PM 13.8460 -73.3078 141° Southeast  Level FlightAware Approximate
08:20PM 13.7445 -73.2234 141° Southeast  Level FlightAware Approximate
08:21PM 13.6430 -73.1391 141° Southeast  Level FlightAware Approximate
08:22PM 13.5415 -73.0549 141° Southeast  Level FlightAware Approximate
08:23PM 13.4399 -72.9707 141° Southeast  Level FlightAware Approximate
08:24PM 13.3384 -72.8866 141° Southeast  Level FlightAware Approximate
08:25PM 13.2368 -72.8026 141° Southeast  Level FlightAware Approximate
08:26PM 13.1351 -72.7186 141° Southeast  Level FlightAware Approximate
08:27PM 13.0335 -72.6347 141° Southeast  Level FlightAware Approximate
08:28PM 12.9318 -72.5509 141° Southeast  Level FlightAware Approximate
08:29PM 12.8301 -72.4672 141° Southeast  Level FlightAware Approximate
08:30PM 12.7283 -72.3835 141° Southeast  Level FlightAware Approximate
08:31PM 12.6266 -72.2999 141° Southeast  Level FlightAware Approximate
08:32PM 12.5248 -72.2163 141° Southeast  Level FlightAware Approximate
08:33PM 12.4229 -72.1328 141° Southeast  Level FlightAware Approximate
08:34PM 12.3211 -72.0494 141° Southeast  Level FlightAware Approximate
08:35PM 12.2192 -71.9661 141° Southeast  Level FlightAware Approximate
08:36PM 12.1173 -71.8828 141° Southeast  Level FlightAware Approximate
08:37PM 12.0154 -71.7996 141° Southeast  Level FlightAware Approximate
08:38PM 11.9135 -71.7164 141° Southeast  Level FlightAware Approximate
08:39PM 11.8115 -71.6333 141° Southeast  Level FlightAware Approximate
08:40PM 11.7095 -71.5503 141° Southeast  Level FlightAware Approximate
08:41PM 11.6075 -71.4673 141° Southeast  Level FlightAware Approximate
08:42PM 11.5055 -71.3844 141° Southeast  Level FlightAware Approximate
08:43PM 11.4034 -71.3015 141° Southeast  Level FlightAware Approximate
08:44PM 11.3013 -71.2187 142° Southeast  Level FlightAware Approximate
08:45PM 11.1992 -71.1360 142° Southeast  Level FlightAware Approximate
08:46PM 11.0971 -71.0533 142° Southeast  Level FlightAware Approximate
08:47PM 10.9949 -70.9707 142° Southeast  Level FlightAware Approximate
08:48PM 10.8927 -70.8881 142° Southeast  Level FlightAware Approximate
08:49PM 10.7905 -70.8056 142° Southeast  Level FlightAware Approximate
08:50PM 10.6883 -70.7232 142° Southeast  Level FlightAware Approximate
08:51PM 10.5861 -70.6408 142° Southeast  Level FlightAware Approximate
08:52PM 10.4838 -70.5584 142° Southeast  Level FlightAware Approximate
08:53PM 10.3815 -70.4761 142° Southeast  Level FlightAware Approximate
08:54PM 10.2792 -70.3939 142° Southeast  Level FlightAware Approximate
08:55PM 10.1769 -70.3117 142° Southeast  Level FlightAware Approximate
08:56PM 10.0745 -70.2296 142° Southeast  Level FlightAware Approximate
08:57PM 9.9722 -70.1475 142° Southeast  Level FlightAware Approximate
08:58PM 9.8698 -70.0655 142° Southeast  Level FlightAware Approximate
08:59PM 9.7674 -69.9835 142° Southeast  Level FlightAware Approximate
09:00PM 9.6649 -69.9016 142° Southeast  Level FlightAware Approximate
09:01PM 9.5625 -69.8197 142° Southeast  Level FlightAware Approximate
09:02PM 9.4600 -69.7379 142° Southeast  Level FlightAware Approximate
09:03PM 9.3575 -69.6562 142° Southeast  Level FlightAware Approximate
09:04PM 9.2550 -69.5744 142° Southeast  Level FlightAware Approximate
09:05PM 9.1525 -69.4928 142° Southeast  Level FlightAware Approximate
09:06PM 9.0500 -69.4111 142° Southeast  Level FlightAware Approximate
09:07PM 8.9474 -69.3296 142° Southeast  Level FlightAware Approximate
09:08PM 8.8448 -69.2480 142° Southeast  Level FlightAware Approximate
09:09PM 8.7422 -69.1665 142° Southeast  Level FlightAware Approximate
09:10PM 8.6396 -69.0851 142° Southeast  Level FlightAware Approximate
09:11PM 8.5370 -69.0037 142° Southeast  Level FlightAware Approximate
09:12PM 8.4343 -68.9223 142° Southeast  Level FlightAware Approximate
09:13PM 8.3317 -68.8410 142° Southeast  Level FlightAware Approximate
09:14PM 8.2290 -68.7597 142° Southeast  Level FlightAware Approximate
09:15PM 8.1263 -68.6785 142° Southeast  Level FlightAware Approximate
09:16PM 8.0236 -68.5973 142° Southeast  Level FlightAware Approximate
09:17PM 7.9209 -68.5162 142° Southeast  Level FlightAware Approximate
09:18PM 7.8181 -68.4350 142° Southeast  Level FlightAware Approximate
09:19PM 7.7154 -68.3540 142° Southeast  Level FlightAware Approximate
09:20PM 7.6126 -68.2729 142° Southeast  Level FlightAware Approximate
09:21PM 7.5098 -68.1919 142° Southeast  Level FlightAware Approximate
09:22PM 7.4070 -68.1110 142° Southeast  Level FlightAware Approximate
09:23PM 7.3042 -68.0301 142° Southeast  Level FlightAware Approximate
09:24PM 7.2014 -67.9492 142° Southeast  Level FlightAware Approximate
09:25PM 7.0985 -67.8684 142° Southeast  Level FlightAware Approximate
09:26PM 6.9956 -67.7876 142° Southeast  Level FlightAware Approximate
09:27PM 6.8928 -67.7068 142° Southeast  Level FlightAware Approximate
09:28PM 6.7899 -67.6261 142° Southeast  Level FlightAware Approximate
09:29PM 6.6870 -67.5454 142° Southeast  Level FlightAware Approximate
09:30PM 6.5841 -67.4647 142° Southeast  Level FlightAware Approximate
09:31PM 6.4811 -67.3841 142° Southeast  Level FlightAware Approximate
09:32PM 6.3782 -67.3035 142° Southeast  Level FlightAware Approximate
09:33PM 6.2752 -67.2229 142° Southeast  Level FlightAware Approximate
09:34PM 6.1723 -67.1424 142° Southeast  Level FlightAware Approximate
09:35PM 6.0693 -67.0619 142° Southeast  Level FlightAware Approximate
09:36PM 5.9663 -66.9814 142° Southeast  Level FlightAware Approximate
09:37PM 5.8633 -66.9010 142° Southeast  Level FlightAware Approximate
09:38PM 5.7603 -66.8206 142° Southeast  Level FlightAware Approximate
09:39PM 5.6573 -66.7402 142° Southeast  Level FlightAware Approximate
09:40PM 5.5542 -66.6598 142° Southeast  Level FlightAware Approximate
09:41PM 5.4512 -66.5795 142° Southeast  Level FlightAware Approximate
09:42PM 5.3481 -66.4992 142° Southeast  Level FlightAware Approximate
09:43PM 5.2451 -66.4189 142° Southeast  Level FlightAware Approximate
09:44PM 5.1420 -66.3387 142° Southeast  Level FlightAware Approximate
09:45PM 5.0389 -66.2585 142° Southeast  Level FlightAware Approximate
09:46PM 4.9358 -66.1783 142° Southeast  Level FlightAware Approximate
09:47PM 4.8327 -66.0981 142° Southeast  Level FlightAware Approximate
09:48PM 4.7296 -66.0180 142° Southeast  Level FlightAware Approximate
09:49PM 4.6265 -65.9379 142° Southeast  Level FlightAware Approximate
09:50PM 4.5233 -65.8577 142° Southeast  Level FlightAware Approximate
09:51PM 4.4202 -65.7777 142° Southeast  Level FlightAware Approximate
09:52PM 4.3170 -65.6976 142° Southeast  Level FlightAware Approximate
09:53PM 4.2139 -65.6176 142° Southeast  Level FlightAware Approximate
09:54PM 4.1107 -65.5376 142° Southeast  Level FlightAware Approximate
09:55PM 4.0075 -65.4576 142° Southeast  Level FlightAware Approximate
09:56PM 3.9043 -65.3776 142° Southeast  Level FlightAware Approximate
09:57PM 3.8012 -65.2977 142° Southeast  Level FlightAware Approximate
09:58PM 3.6979 -65.2178 142° Southeast  Level FlightAware Approximate
09:59PM 3.5947 -65.1378 142° Southeast  Level FlightAware Approximate
10:00PM 3.4915 -65.0580 142° Southeast  Level FlightAware Approximate
10:01PM 3.3883 -64.9781 142° Southeast  Level FlightAware Approximate
10:02PM 3.2851 -64.8982 142° Southeast  Level FlightAware Approximate
10:03PM 3.1818 -64.8184 142° Southeast  Level FlightAware Approximate
10:04PM 3.0786 -64.7385 142° Southeast  Level FlightAware Approximate
10:05PM 2.9754 -64.6587 142° Southeast  Level FlightAware Approximate
10:06PM 2.8721 -64.5789 142° Southeast  Level FlightAware Approximate
10:07PM 2.7689 -64.4992 142° Southeast  Level FlightAware Approximate
10:08PM 2.6656 -64.4194 142° Southeast  Level FlightAware Approximate
10:09PM 2.5623 -64.3397 142° Southeast  Level FlightAware Approximate
10:10PM 2.4591 -64.2599 142° Southeast  Level FlightAware Approximate
10:11PM 2.3558 -64.1802 142° Southeast  Level FlightAware Approximate
10:12PM 2.2525 -64.1005 142° Southeast  Level FlightAware Approximate
10:13PM 2.1492 -64.0208 142° Southeast  Level FlightAware Approximate
10:14PM 2.0459 -63.9411 142° Southeast  Level FlightAware Approximate
10:15PM 1.9426 -63.8614 142° Southeast  Level FlightAware Approximate
10:16PM 1.8393 -63.7817 142° Southeast  Level FlightAware Approximate
10:17PM 1.7360 -63.7020 142° Southeast  Level FlightAware Approximate
10:18PM 1.6327 -63.6224 142° Southeast  Level FlightAware Approximate
10:19PM 1.5294 -63.5427 142° Southeast  Level FlightAware Approximate
10:20PM 1.4261 -63.4631 142° Southeast  Level FlightAware Approximate
10:21PM 1.3228 -63.3835 142° Southeast  Level FlightAware Approximate
10:22PM 1.2195 -63.3038 142° Southeast  Level FlightAware Approximate
10:23PM 1.1162 -63.2242 142° Southeast  Level FlightAware Approximate
10:24PM 1.0129 -63.1446 142° Southeast  Level FlightAware Approximate
10:25PM 0.9095 -63.0650 142° Southeast  Level FlightAware Approximate
10:26PM 0.8062 -62.9854 142° Southeast  Level FlightAware Approximate
10:27PM 0.7029 -62.9058 142° Southeast  Level FlightAware Approximate
10:28PM 0.5996 -62.8262 142° Southeast  Level FlightAware Approximate
10:29PM 0.4962 -62.7466 142° Southeast  Level FlightAware Approximate
10:30PM 0.3929 -62.6670 142° Southeast  Level FlightAware Approximate
10:31PM 0.2896 -62.5874 142° Southeast  Level FlightAware Approximate
10:32PM 0.1863 -62.5078 142° Southeast  Level FlightAware Approximate
10:33PM 0.0829 -62.4282 142° Southeast  Level FlightAware Approximate
10:34PM -0.0204 -62.3486 142° Southeast  Level FlightAware Approximate
10:35PM -0.1237 -62.2691 142° Southeast  Level FlightAware Approximate
10:36PM -0.2271 -62.1895 142° Southeast  Level FlightAware Approximate
10:37PM -0.3304 -62.1099 142° Southeast  Level FlightAware Approximate
10:38PM -0.4337 -62.0303 142° Southeast  Level FlightAware Approximate
10:39PM -0.5371 -61.9507 142° Southeast  Level FlightAware Approximate
10:40PM -0.6404 -61.8711 142° Southeast  Level FlightAware Approximate
10:41PM -0.7437 -61.7915 142° Southeast  Level FlightAware Approximate
10:42PM -0.8470 -61.7119 142° Southeast  Level FlightAware Approximate
10:43PM -0.9504 -61.6323 142° Southeast  Level FlightAware Approximate
10:44PM -1.0537 -61.5527 142° Southeast  Level FlightAware Approximate
10:45PM -1.1570 -61.4730 142° Southeast  Level FlightAware Approximate
10:46PM -1.2603 -61.3934 142° Southeast  Level FlightAware Approximate
10:47PM -1.3644 -61.3150 144° Southeast  Level FlightAware Approximate
10:48PM -1.4696 -61.2378 144° Southeast  Level FlightAware Approximate
10:49PM -1.5738 -61.1595 135° Southeast  Level FlightAware Approximate
10:50PM -1.6794 -61.0832 144° Southeast  Level FlightAware Approximate
10:51PM -1.7848 -61.0065 144° Southeast  Level FlightAware Approximate
10:52PM -1.8872 -60.9257 141° Southeast  Level FlightAware Approximate
10:53PM -1.9881 -60.8430 141° Southeast  Level FlightAware Approximate
10:54PM -2.0907 -60.7624 142° Southeast  Level FlightAware Approximate
10:55PM -2.1934 -60.6820 142° Southeast  Level FlightAware Approximate
10:56PM -2.2962 -60.6016 142° Southeast  Level FlightAware Approximate
10:57PM -2.3991 -60.5215 143° Southeast  Level FlightAware Approximate
10:58PM -2.5035 -60.4432 143° Southeast  Level FlightAware Approximate
10:59PM -2.6089 -60.3663 144° Southeast  Level FlightAware Approximate
11:00PM -2.7143 -60.2893 143° Southeast  Level FlightAware Approximate
11:01PM -2.8187 -60.2110 143° Southeast  Level FlightAware Approximate
11:02PM -2.9228 -60.1329 143° Southeast  Level FlightAware Approximate
11:03PM -3.0167 -60.0500 135° Southeast  Level FlightAware Approximate
11:04PM -3.0386 -60.0497 135° Southeast  Level Estimated
11:05PM -3.0386 -60.0497 135° Southeast  Level Estimated
11:06PM -3.0386 -60.0497 135° Southeast  Level Estimated
11:07PM -3.0386 -60.0497 135° Southeast  Level Estimated
11:08PM -3.0386 -60.0497 135° Southeast  Level Estimated
11:09PM -3.0386 -60.0497 135° Southeast  Level Estimated
11:10PM -3.0386 -60.0497 135° Southeast  Level Estimated
11:11PM -3.0386 -60.0497 135° Southeast  Level Estimated
11:12PM -3.0386 -60.0497 135° Southeast  Level Estimated
11:13PM -3.0386 -60.0497 135° Southeast  Level Estimated
11:14PM -3.0386 -60.0497 135° Southeast  Level Estimated